Time;durP1;ratioP1;P1;durP2;ratioP2;P2;SDS_P1;SDS_P2;PMS_P1;PMS_P2;Temp;Humidity;BMP_temperature;BMP_pressure;BME280_temperature;BME280_humidity;BME280_pressure;Samples;Min_cycle;Max_cycle;Signal;HPM_P1;HPM_P2
2024/01/12 00:01:12;;;;;;;49.80;17.17;;;-2.90;99.90;;;;;;4955612;29;20047;-64
2024/01/12 00:03:38;;;;;;;58.47;18.83;;;-2.90;99.90;;;;;;4952146;28;20516;-64
2024/01/12 00:06:06;;;;;;;62.67;19.85;;;-2.90;99.90;;;;;;4949649;29;20150;-64
2024/01/12 00:08:33;;;;;;;55.30;18.63;;;-2.90;99.90;;;;;;4955905;29;20744;-64
2024/01/12 00:11:00;;;;;;;54.42;17.85;;;-2.90;99.90;;;;;;4955811;29;20495;-64
2024/01/12 00:13:26;;;;;;;50.97;16.50;;;-2.90;99.90;;;;;;4949000;28;20045;-64
2024/01/12 00:15:53;;;;;;;55.55;17.33;;;-2.90;99.90;;;;;;4958576;28;20049;-64
2024/01/12 00:18:20;;;;;;;46.15;15.95;;;-2.90;99.90;;;;;;4957465;28;20357;-64
2024/01/12 00:20:47;;;;;;;46.92;15.35;;;-3.00;99.90;;;;;;4955149;29;20456;-64
2024/01/12 00:23:14;;;;;;;;;;;-3.20;99.90;;;;;;4947856;29;20047;-64
2024/01/12 00:25:41;;;;;;;40.40;14.48;;;-3.40;99.90;;;;;;4955270;28;19970;-64
2024/01/12 00:28:08;;;;;;;43.67;13.88;;;-3.40;99.90;;;;;;4955300;29;20474;-64
2024/01/12 00:30:39;;;;;;;41.17;14.93;;;-3.50;99.90;;;;;;4950356;29;20497;-64
2024/01/12 00:33:06;;;;;;;39.10;14.10;;;-3.60;99.90;;;;;;4948993;29;20047;-64
2024/01/12 00:35:33;;;;;;;;;;;-3.80;99.90;;;;;;4938531;29;20039;-64
2024/01/12 00:38:00;;;;;;;39.90;14.25;;;-3.80;99.90;;;;;;4955715;29;20022;-64
2024/01/12 00:40:27;;;;;;;39.53;14.18;;;-3.80;99.90;;;;;;4944046;29;20043;-64
2024/01/12 00:42:53;;;;;;;46.30;14.63;;;-3.70;99.90;;;;;;4951195;29;20055;-64
2024/01/12 00:45:20;;;;;;;42.75;14.90;;;-3.70;99.90;;;;;;4955450;28;20039;-64
2024/01/12 00:47:47;;;;;;;42.35;15.60;;;-3.70;99.90;;;;;;4929221;29;20039;-64
2024/01/12 00:50:14;;;;;;;47.10;16.50;;;-3.60;99.90;;;;;;4955282;29;20048;-63
2024/01/12 00:52:41;;;;;;;45.40;15.15;;;-3.50;99.90;;;;;;4954322;29;20054;-64
2024/01/12 00:55:08;;;;;;;39.70;15.32;;;-3.50;99.90;;;;;;4946453;28;20134;-64
2024/01/12 00:57:35;;;;;;;38.70;14.13;;;-3.50;99.90;;;;;;4951787;29;20047;-64
2024/01/12 01:00:04;;;;;;;41.55;14.50;;;-3.50;99.90;;;;;;4955284;29;20047;-64
2024/01/12 01:02:31;;;;;;;42.00;14.70;;;-3.50;99.90;;;;;;4961610;28;20054;-64
2024/01/12 01:04:58;;;;;;;36.72;13.27;;;-3.50;99.90;;;;;;4949999;28;20120;-64
2024/01/12 01:07:24;;;;;;;37.45;13.82;;;-3.40;99.90;;;;;;4961428;28;20046;-63
2024/01/12 01:09:51;;;;;;;36.65;12.73;;;-3.40;99.90;;;;;;4955592;28;20122;-64
2024/01/12 01:12:18;;;;;;;38.65;14.27;;;-3.40;99.90;;;;;;4951116;29;20046;-64
2024/01/12 01:14:45;;;;;;;39.92;13.35;;;-3.50;99.90;;;;;;4955265;28;20047;-64
2024/01/12 01:17:12;;;;;;;38.85;13.75;;;-3.50;99.90;;;;;;4954701;29;20051;-64
2024/01/12 01:19:39;;;;;;;35.17;12.93;;;-3.60;99.90;;;;;;4949145;28;20051;-64
2024/01/12 01:22:06;;;;;;;37.70;14.00;;;-3.60;99.90;;;;;;4950297;29;20040;-64
2024/01/12 01:24:33;;;;;;;33.95;13.05;;;-3.60;99.90;;;;;;4952989;28;20155;-64
2024/01/12 01:26:59;;;;;;;35.22;12.25;;;-3.70;99.90;;;;;;4951762;29;20050;-64
2024/01/12 01:29:26;;;;;;;35.13;12.82;;;-3.70;99.90;;;;;;4953762;29;20087;-64
2024/01/12 01:31:53;;;;;;;29.75;12.95;;;-3.80;99.90;;;;;;4945233;29;20082;-64
2024/01/12 01:34:20;;;;;;;38.10;12.80;;;-3.80;99.90;;;;;;4954447;28;20054;-64
2024/01/12 01:36:47;;;;;;;25.55;9.95;;;-3.90;99.90;;;;;;4946274;29;20043;-64
2024/01/12 01:39:14;;;;;;;35.85;11.88;;;-3.90;99.90;;;;;;4954637;29;20138;-64
2024/01/12 01:41:41;;;;;;;34.05;12.02;;;-3.90;99.90;;;;;;4952381;29;20077;-64
2024/01/12 01:44:08;;;;;;;33.95;12.70;;;-3.90;99.90;;;;;;4948682;29;20130;-64
2024/01/12 01:46:35;;;;;;;35.72;13.48;;;-3.80;99.90;;;;;;4949667;29;20054;-64
2024/01/12 01:49:02;;;;;;;38.25;13.23;;;-3.80;99.90;;;;;;4952818;29;20046;-64
2024/01/12 01:51:29;;;;;;;42.42;14.05;;;-3.80;99.90;;;;;;4953892;28;20481;-64
2024/01/12 01:53:56;;;;;;;37.50;13.55;;;-3.70;99.90;;;;;;4956985;28;20049;-64
2024/01/12 01:56:23;;;;;;;42.58;14.48;;;-3.70;99.90;;;;;;4954189;29;20086;-63
2024/01/12 01:58:50;;;;;;;39.38;13.23;;;-3.60;99.90;;;;;;4954176;28;20051;-64
2024/01/12 02:01:17;;;;;;;;;;;-3.50;99.90;;;;;;4952719;29;20493;-64
2024/01/12 02:03:46;;;;;;;47.30;16.90;;;-3.50;99.90;;;;;;4953565;28;19928;-64
2024/01/12 02:06:13;;;;;;;52.13;18.83;;;-3.50;99.90;;;;;;4953778;29;20051;-64
2024/01/12 02:08:40;;;;;;;;;;;-3.50;99.90;;;;;;4952827;29;20039;-64
2024/01/12 02:11:08;;;;;;;44.47;13.70;;;-3.50;99.90;;;;;;4945440;29;19930;-63
2024/01/12 02:13:34;;;;;;;;;;;-3.50;99.90;;;;;;4953087;28;20126;-64
2024/01/12 02:16:01;;;;;;;35.72;12.63;;;-3.50;99.90;;;;;;4951669;29;19922;-64
2024/01/12 02:18:31;;;;;;;37.17;12.73;;;-3.50;99.90;;;;;;4953300;29;20065;-64
2024/01/12 02:20:58;;;;;;;32.67;12.23;;;-3.50;99.90;;;;;;4935452;29;20062;-64
2024/01/12 02:23:25;;;;;;;36.20;12.23;;;-3.50;99.90;;;;;;4953802;29;20479;-64
2024/01/12 02:25:52;;;;;;;32.70;12.70;;;-3.50;99.90;;;;;;4948968;29;20488;-64
2024/01/12 02:28:19;;;;;;;35.30;12.27;;;-3.50;99.90;;;;;;4953495;28;20047;-64
2024/01/12 02:30:46;;;;;;;25.65;11.85;;;-3.60;99.90;;;;;;4951256;29;20407;-64
2024/01/12 02:33:13;;;;;;;27.58;10.75;;;-3.70;99.90;;;;;;4953642;29;20043;-64
2024/01/12 02:35:40;;;;;;;35.13;10.80;;;-3.70;99.90;;;;;;4952380;28;20043;-64
2024/01/12 02:38:07;;;;;;;37.00;11.27;;;-3.60;99.90;;;;;;4953556;29;20042;-64
2024/01/12 02:40:34;;;;;;;34.85;12.43;;;-3.70;99.90;;;;;;4951791;29;20268;-64
2024/01/12 02:43:03;;;;;;;33.40;11.65;;;-3.80;99.90;;;;;;4953238;29;20042;-63
2024/01/12 02:45:30;;;;;;;34.42;11.43;;;-3.80;99.90;;;;;;4952877;28;20098;-63
2024/01/12 02:47:57;;;;;;;35.70;12.85;;;-3.80;99.90;;;;;;4951445;29;20066;-63
2024/01/12 02:50:24;;;;;;;;;;;-3.70;99.90;;;;;;4953253;29;20531;-63
2024/01/12 02:52:50;;;;;;;29.45;11.05;;;-3.70;99.90;;;;;;4941467;29;20001;-63
2024/01/12 02:55:17;;;;;;;27.48;9.65;;;-3.60;99.90;;;;;;4947764;28;20504;-64
2024/01/12 02:57:44;;;;;;;26.55;10.85;;;-3.60;99.90;;;;;;4949494;29;20122;-62
2024/01/12 03:00:11;;;;;;;30.88;11.32;;;-3.60;99.90;;;;;;4952562;29;20039;-62
2024/01/12 03:02:38;;;;;;;28.95;11.55;;;-3.60;99.90;;;;;;4953298;29;20051;-63
2024/01/12 03:05:06;;;;;;;27.13;10.23;;;-3.60;99.90;;;;;;4944469;29;20048;-64
2024/01/12 03:07:33;;;;;;;29.88;10.85;;;-3.60;99.90;;;;;;4952943;29;20516;-63
2024/01/12 03:10:00;;;;;;;30.48;11.23;;;-3.60;99.90;;;;;;4960511;28;20489;-63
2024/01/12 03:12:27;;;;;;;29.85;11.10;;;-3.60;99.90;;;;;;4952670;29;20523;-63
2024/01/12 03:14:53;;;;;;;26.80;9.63;;;-3.50;99.90;;;;;;4945273;29;20499;-64
2024/01/12 03:17:21;;;;;;;;;;;-3.50;99.90;;;;;;4951466;29;20385;-64
2024/01/12 03:19:48;;;;;;;36.75;11.95;;;-3.40;99.90;;;;;;4952173;29;20013;-64
2024/01/12 03:22:14;;;;;;;43.88;15.68;;;-3.40;99.90;;;;;;4943898;29;20516;-63
2024/01/12 03:24:41;;;;;;;32.90;12.85;;;-3.40;99.90;;;;;;4943710;29;20057;-64
2024/01/12 03:27:08;;;;;;;25.08;10.43;;;-3.40;99.90;;;;;;4951632;29;20051;-64
2024/01/12 03:29:35;;;;;;;24.95;9.50;;;-3.40;99.90;;;;;;4946607;29;20504;-63
2024/01/12 03:32:02;;;;;;;27.42;9.23;;;-3.40;99.90;;;;;;4950753;29;20172;-63
2024/01/12 03:34:29;;;;;;;24.83;9.88;;;-3.50;99.90;;;;;;4949426;29;20044;-63
2024/01/12 03:36:56;;;;;;;32.88;11.27;;;-3.60;99.90;;;;;;4952670;29;20216;-63
2024/01/12 03:39:23;;;;;;;32.25;10.13;;;-3.50;99.90;;;;;;4952142;29;20047;-63
2024/01/12 03:41:50;;;;;;;31.27;10.38;;;-3.50;99.90;;;;;;4952384;29;20047;-64
2024/01/12 03:44:16;;;;;;;28.83;11.90;;;-3.50;99.90;;;;;;4948326;28;20421;-63
2024/01/12 03:46:43;;;;;;;32.92;12.13;;;-3.60;99.90;;;;;;4952622;29;20501;-64
2024/01/12 03:49:10;;;;;;;26.73;10.82;;;-3.50;99.90;;;;;;4951807;29;20053;-64
2024/01/12 03:51:37;;;;;;;26.50;11.20;;;-3.40;99.90;;;;;;4949858;29;20035;-64
2024/01/12 03:54:05;;;;;;;31.45;11.15;;;-3.30;99.90;;;;;;4950785;28;20043;-63
2024/01/12 03:56:31;;;;;;;25.05;10.02;;;-3.30;99.90;;;;;;4958752;28;20046;-63
2024/01/12 03:58:58;;;;;;;32.42;11.15;;;-3.30;99.90;;;;;;4943018;29;20090;-64
2024/01/12 04:01:25;;;;;;;30.48;11.52;;;-3.20;99.90;;;;;;4951374;29;20385;-64
2024/01/12 04:03:52;;;;;;;40.15;13.93;;;-3.10;99.90;;;;;;4951778;28;20130;-64
2024/01/12 04:06:19;;;;;;;40.15;13.48;;;-3.10;99.90;;;;;;4941597;29;20047;-64
2024/01/12 04:08:46;;;;;;;42.90;15.18;;;-3.00;99.90;;;;;;4947807;29;20404;-64
2024/01/12 04:11:26;;;;;;;49.03;17.20;;;-3.00;99.90;;;;;;4951780;29;20067;-64
2024/01/12 04:13:53;;;;;;;40.42;15.00;;;-3.00;99.90;;;;;;4952540;28;20048;-64
2024/01/12 04:16:20;;;;;;;49.13;16.67;;;-2.90;99.90;;;;;;4936317;29;20452;-64
2024/01/12 04:18:47;;;;;;;;;;;-2.90;99.90;;;;;;4952974;29;20078;-64
2024/01/12 04:21:14;;;;;;;39.78;14.48;;;-2.90;99.90;;;;;;4946343;29;19922;-64
2024/01/12 04:23:41;;;;;;;37.35;15.10;;;-2.90;99.90;;;;;;4948170;29;20051;-64
2024/01/12 04:26:08;;;;;;;40.78;14.80;;;-2.90;99.90;;;;;;4942193;29;20058;-64
2024/01/12 04:28:34;;;;;;;26.65;11.70;;;-2.90;99.90;;;;;;4952257;29;20046;-64
2024/01/12 04:31:02;;;;;;;29.58;11.27;;;-3.00;99.90;;;;;;4951473;29;20114;-64
2024/01/12 04:33:30;;;;;;;28.98;10.15;;;-3.10;99.90;;;;;;4944311;29;20565;-64
2024/01/12 04:35:58;;;;;;;26.38;10.90;;;-3.20;99.90;;;;;;4948812;28;20039;-64
2024/01/12 04:38:26;;;;;;;28.90;10.85;;;-3.30;99.90;;;;;;4952113;29;20062;-64
2024/01/12 04:40:54;;;;;;;30.80;11.10;;;-3.40;99.90;;;;;;4945153;29;20077;-64
2024/01/12 04:43:21;;;;;;;28.75;10.27;;;-3.40;99.90;;;;;;4954889;29;20031;-64
2024/01/12 04:45:47;;;;;;;25.42;9.43;;;-3.40;99.90;;;;;;4947681;28;20043;-64
2024/01/12 04:48:14;;;;;;;30.95;11.73;;;-3.30;99.90;;;;;;4952724;29;20047;-64
2024/01/12 04:50:41;;;;;;;38.80;12.82;;;-3.30;99.90;;;;;;4951619;29;20098;-64
2024/01/12 04:53:08;;;;;;;28.38;11.93;;;-3.20;99.90;;;;;;4955497;29;20098;-64
2024/01/12 04:55:35;;;;;;;35.30;11.77;;;-3.20;99.90;;;;;;4945030;28;20053;-64
2024/01/12 04:58:03;;;;;;;37.00;12.07;;;-3.10;99.90;;;;;;4955433;29;20081;-64
2024/01/12 05:00:30;;;;;;;31.20;11.70;;;-3.10;99.90;;;;;;4956962;28;20047;-64
2024/01/12 05:02:57;;;;;;;35.83;12.75;;;-3.10;99.90;;;;;;4955498;29;20505;-64
2024/01/12 05:05:24;;;;;;;41.38;12.88;;;-3.10;99.90;;;;;;4949690;29;20043;-64
2024/01/12 05:07:51;;;;;;;26.88;10.38;;;-3.10;99.90;;;;;;4954155;29;20043;-64
2024/01/12 05:10:18;;;;;;;32.55;10.43;;;-3.10;99.90;;;;;;4954837;29;20130;-64
2024/01/12 05:12:45;;;;;;;34.03;12.63;;;-3.10;99.90;;;;;;4954516;29;20041;-64
2024/01/12 05:15:11;;;;;;;34.33;12.05;;;-3.10;99.90;;;;;;4952061;28;20044;-64
2024/01/12 05:17:38;;;;;;;37.70;13.38;;;-3.10;99.90;;;;;;4954019;29;20043;-63
2024/01/12 05:20:06;;;;;;;37.28;13.05;;;-3.10;99.90;;;;;;4941901;29;20043;-64
2024/01/12 05:22:35;;;;;;;35.97;14.48;;;-3.10;99.90;;;;;;4941034;29;20512;-64
2024/01/12 05:25:04;;;;;;;41.35;15.45;;;-3.00;99.90;;;;;;4954612;28;20035;-64
2024/01/12 05:27:31;;;;;;;41.38;14.60;;;-3.00;99.90;;;;;;4948076;29;20035;-64
2024/01/12 05:29:57;;;;;;;36.90;14.02;;;-2.90;99.90;;;;;;4942492;29;20047;-64
2024/01/12 05:32:29;;;;;;;40.65;13.25;;;-2.80;99.90;;;;;;4954192;29;20508;-63
2024/01/12 05:34:56;;;;;;;44.90;14.73;;;-2.80;99.90;;;;;;4954112;28;20382;-64
2024/01/12 05:37:23;;;;;;;39.03;14.68;;;-2.90;99.90;;;;;;4952420;29;20140;-64
2024/01/12 05:39:51;;;;;;;43.40;15.15;;;-2.90;99.90;;;;;;4948611;29;20451;-64
2024/01/12 05:42:17;;;;;;;37.08;13.82;;;-2.90;99.90;;;;;;4954096;29;20070;-64
2024/01/12 05:44:44;;;;;;;45.13;17.13;;;-2.80;99.90;;;;;;4948564;29;20121;-64
2024/01/12 05:47:13;;;;;;;43.85;17.20;;;-2.80;99.90;;;;;;4955242;28;20043;-64
2024/01/12 05:49:40;;;;;;;47.88;19.20;;;-2.80;99.90;;;;;;4944639;29;20111;-63
2024/01/12 05:52:06;;;;;;;51.00;19.88;;;-2.80;99.90;;;;;;4954156;29;20384;-64
2024/01/12 05:54:33;;;;;;;57.00;21.30;;;-2.80;99.90;;;;;;4945938;28;20039;-62
2024/01/12 05:57:00;;;;;;;56.15;21.20;;;-2.70;99.90;;;;;;4933386;29;20039;-63
2024/01/12 05:59:27;;;;;;;50.40;19.77;;;-2.70;99.90;;;;;;4939407;28;20050;-64
2024/01/12 06:01:54;;;;;;;45.85;19.35;;;-2.60;99.90;;;;;;4946403;29;20047;-63
2024/01/12 06:04:21;;;;;;;51.22;19.08;;;-2.60;99.90;;;;;;4945407;29;20047;-63
2024/01/12 06:06:48;;;;;;;51.35;20.02;;;-2.60;99.90;;;;;;4948836;29;20043;-64
2024/01/12 06:09:15;;;;;;;51.58;19.83;;;-2.60;99.90;;;;;;4947586;29;20481;-64
2024/01/12 06:11:43;;;;;;;54.00;20.15;;;-2.60;99.90;;;;;;4942732;29;20096;-64
2024/01/12 06:14:11;;;;;;;52.70;20.23;;;-2.60;99.90;;;;;;4950507;28;20117;-64
2024/01/12 06:16:37;;;;;;;;;;;-2.60;99.90;;;;;;4953623;29;20042;-64
2024/01/12 06:19:04;;;;;;;42.53;17.70;;;-2.60;99.90;;;;;;4944027;29;19926;-62
2024/01/12 06:21:31;;;;;;;50.83;19.67;;;-2.50;99.90;;;;;;4952826;29;20400;-64
2024/01/12 06:23:58;;;;;;;55.95;20.23;;;-2.50;99.90;;;;;;4946456;29;20416;-64
2024/01/12 06:26:25;;;;;;;50.35;22.00;;;-2.50;99.90;;;;;;4952124;29;20552;-64
2024/01/12 06:28:52;;;;;;;45.75;20.40;;;-2.50;99.90;;;;;;4952242;29;20043;-64
2024/01/12 06:31:19;;;;;;;49.75;19.83;;;-2.40;99.90;;;;;;4952891;29;20113;-63
2024/01/12 06:33:46;;;;;;;47.50;19.33;;;-2.50;99.90;;;;;;4945105;28;20389;-64
2024/01/12 06:36:13;;;;;;;49.25;18.65;;;-2.50;99.90;;;;;;4953307;29;20049;-64
2024/01/12 06:38:41;;;;;;;48.42;18.75;;;-2.40;99.90;;;;;;4951479;29;20055;-64
2024/01/12 06:41:08;;;;;;;45.72;19.15;;;-2.40;99.90;;;;;;4951022;29;20049;-64
2024/01/12 06:43:34;;;;;;;47.95;20.30;;;-2.40;99.90;;;;;;4945694;28;20039;-64
2024/01/12 06:46:05;;;;;;;44.90;18.73;;;-2.40;99.90;;;;;;4953310;29;20041;-64
2024/01/12 06:48:32;;;;;;;44.30;17.65;;;-2.40;99.90;;;;;;4944769;29;20071;-64
2024/01/12 06:50:59;;;;;;;46.58;18.10;;;-2.40;99.90;;;;;;4953224;29;20449;-64
2024/01/12 06:53:26;;;;;;;41.85;16.92;;;-2.50;99.90;;;;;;4952792;28;20044;-64
2024/01/12 06:55:53;;;;;;;42.63;17.17;;;-2.40;99.90;;;;;;4947099;29;20063;-64
2024/01/12 06:58:21;;;;;;;52.75;19.17;;;-2.40;99.90;;;;;;4952844;29;20047;-64
2024/01/12 07:00:48;;;;;;;43.97;17.10;;;-2.40;99.90;;;;;;4952623;28;20058;-64
2024/01/12 07:03:15;;;;;;;54.65;19.55;;;-2.40;99.90;;;;;;4949042;29;20079;-64
2024/01/12 07:05:42;;;;;;;48.28;19.63;;;-2.40;99.90;;;;;;4952551;28;20121;-64
2024/01/12 07:08:09;;;;;;;62.95;25.98;;;-2.40;99.90;;;;;;4953047;29;20047;-64
2024/01/12 07:10:36;;;;;;;55.75;21.90;;;-2.40;99.90;;;;;;4952499;29;20110;-64
2024/01/12 07:13:03;;;;;;;43.08;18.67;;;-2.40;99.90;;;;;;4945485;29;20504;-64
2024/01/12 07:15:30;;;;;;;49.17;19.25;;;-2.40;99.90;;;;;;4949890;28;20493;-64
2024/01/12 07:17:58;;;;;;;;;;;-2.40;99.90;;;;;;4952995;29;20071;-64
2024/01/12 07:20:25;;;;;;;;;;;-2.30;99.90;;;;;;4953037;29;19930;-64
2024/01/12 07:22:52;;;;;;;54.38;20.52;;;-2.30;99.90;;;;;;4951094;29;19923;-64
2024/01/12 07:25:19;;;;;;;47.67;18.60;;;-2.30;99.90;;;;;;4952581;28;20415;-64
2024/01/12 07:27:45;;;;;;;49.65;20.48;;;-2.30;99.90;;;;;;4944207;29;20074;-64
2024/01/12 07:30:13;;;;;;;;;;;-2.30;99.90;;;;;;4945292;29;20039;-64
2024/01/12 07:32:40;;;;;;;57.00;20.75;;;-2.20;99.90;;;;;;4945052;29;19929;-64
2024/01/12 07:35:07;;;;;;;52.28;20.95;;;-2.20;99.90;;;;;;4934440;29;20039;-64
2024/01/12 07:37:34;;;;;;;;;;;-2.20;99.90;;;;;;4944508;29;20058;-63
2024/01/12 07:40:02;;;;;;;44.22;18.40;;;-2.10;99.90;;;;;;4945045;29;19922;-63
2024/01/12 07:42:29;;;;;;;46.03;17.63;;;-2.10;99.90;;;;;;4952462;29;20058;-64
2024/01/12 07:44:56;;;;;;;50.58;20.80;;;-2.20;99.90;;;;;;4943123;28;20126;-64
2024/01/12 07:47:23;;;;;;;47.95;18.75;;;-2.20;99.90;;;;;;4950370;28;20099;-64
2024/01/12 07:49:50;;;;;;;44.85;20.00;;;-2.20;99.90;;;;;;4952493;29;20047;-64
2024/01/12 07:52:17;;;;;;;41.88;18.65;;;-2.10;99.90;;;;;;4952471;29;20078;-64
2024/01/12 07:54:46;;;;;;;45.65;19.27;;;-2.10;99.90;;;;;;4944337;28;20042;-64
2024/01/12 07:57:13;;;;;;;46.78;20.90;;;-2.00;99.90;;;;;;4945281;29;20047;-64
2024/01/12 07:59:40;;;;;;;43.92;18.08;;;-1.90;99.90;;;;;;4946544;28;20412;-64
2024/01/12 08:02:07;;;;;;;44.08;17.88;;;-1.90;99.90;;;;;;4945067;29;20047;-64
2024/01/12 08:04:37;;;;;;;48.40;19.25;;;-1.90;99.90;;;;;;4952234;28;20068;-64
2024/01/12 08:07:06;;;;;;;39.30;18.02;;;-1.90;99.90;;;;;;4951725;29;20061;-64
2024/01/12 08:09:33;;;;;;;44.40;18.58;;;-1.90;99.90;;;;;;4952553;29;20404;-64
2024/01/12 08:12:02;;;;;;;44.15;20.35;;;-1.90;99.90;;;;;;4947992;29;20404;-64
2024/01/12 08:14:29;;;;;;;47.65;20.70;;;-1.80;99.90;;;;;;4948062;29;20494;-63
2024/01/12 08:16:55;;;;;;;50.53;21.75;;;-1.70;99.90;;;;;;4956095;29;20047;-64
2024/01/12 08:19:22;;;;;;;51.08;19.50;;;-1.60;99.90;;;;;;4948028;29;20039;-64
2024/01/12 08:21:49;;;;;;;46.15;18.17;;;-1.60;99.90;;;;;;4955799;29;20043;-64
2024/01/12 08:24:22;;;;;;;41.67;18.15;;;-1.60;99.90;;;;;;4953191;28;20043;-64
2024/01/12 08:26:49;;;;;;;45.97;18.58;;;-1.60;99.90;;;;;;4955985;29;20036;-64
2024/01/12 08:29:17;;;;;;;42.85;17.35;;;-1.70;99.90;;;;;;4955700;29;20460;-64
2024/01/12 08:31:44;;;;;;;45.80;18.70;;;-1.70;99.90;;;;;;4951981;29;20063;-64
2024/01/12 08:34:11;;;;;;;46.35;21.50;;;-1.80;99.90;;;;;;4948173;28;20050;-64
2024/01/12 08:36:38;;;;;;;;;;;-1.70;99.90;;;;;;4956289;29;20138;-64
2024/01/12 08:39:04;;;;;;;62.30;21.30;;;-1.60;99.90;;;;;;4955410;29;19932;-64
2024/01/12 08:41:31;;;;;;;43.55;17.75;;;-1.60;99.90;;;;;;4952581;29;20051;-64
2024/01/12 08:43:59;;;;;;;40.58;19.25;;;-1.60;99.90;;;;;;4955362;28;20113;-64
2024/01/12 08:46:26;;;;;;;48.05;18.48;;;-1.50;99.90;;;;;;4946910;29;20464;-64
2024/01/12 08:48:54;;;;;;;47.28;20.00;;;-1.40;99.90;;;;;;4938621;29;20053;-64
2024/01/12 08:51:23;;;;;;;40.85;17.67;;;-1.40;99.90;;;;;;4941012;29;20048;-63
2024/01/12 08:53:50;;;;;;;43.35;18.30;;;-1.30;99.90;;;;;;4955171;28;20131;-64
2024/01/12 08:56:17;;;;;;;39.47;17.92;;;-1.30;99.90;;;;;;4954662;29;20122;-64
2024/01/12 08:58:44;;;;;;;44.22;16.73;;;-1.30;99.90;;;;;;4952004;29;20119;-64
2024/01/12 09:01:13;;;;;;;42.67;18.60;;;-1.30;99.90;;;;;;4945840;29;20048;-64
2024/01/12 09:03:40;;;;;;;40.90;18.73;;;-1.50;99.90;;;;;;4953830;28;20051;-64
2024/01/12 09:06:07;;;;;;;;;;;-1.50;99.90;;;;;;4955928;29;20126;-64
2024/01/12 09:08:34;;;;;;;35.22;15.40;;;-1.40;99.90;;;;;;4953749;29;19930;-64
2024/01/12 09:11:01;;;;;;;39.55;17.17;;;-1.30;99.90;;;;;;4947398;29;20468;-64
2024/01/12 09:13:28;;;;;;;39.03;18.35;;;-1.30;99.90;;;;;;4954745;28;20047;-64
2024/01/12 09:15:55;;;;;;;44.13;18.48;;;-1.20;99.90;;;;;;4955029;29;20411;-64
2024/01/12 09:18:22;;;;;;;37.38;17.75;;;-1.20;99.90;;;;;;4955050;29;20136;-64
2024/01/12 09:20:49;;;;;;;38.38;17.33;;;-1.10;99.90;;;;;;4954713;28;20563;-64
2024/01/12 09:23:16;;;;;;;31.80;15.20;;;-1.20;99.90;;;;;;4934999;28;20492;-64
2024/01/12 09:25:43;;;;;;;38.33;16.60;;;-1.10;99.90;;;;;;4954545;28;20055;-64
2024/01/12 09:28:09;;;;;;;36.97;15.82;;;-1.00;99.90;;;;;;4953720;29;20120;-64
2024/01/12 09:30:36;;;;;;;37.45;15.32;;;-1.00;99.90;;;;;;4945274;29;20531;-64
2024/01/12 09:33:03;;;;;;;34.40;15.40;;;-0.90;99.90;;;;;;4954713;29;20126;-64
2024/01/12 09:35:30;;;;;;;34.10;15.75;;;-0.90;99.90;;;;;;4945234;28;20044;-63
2024/01/12 09:37:57;;;;;;;35.45;17.08;;;-0.90;99.90;;;;;;4949241;29;20456;-64
2024/01/12 09:40:24;;;;;;;35.15;17.13;;;-0.90;99.90;;;;;;4937043;29;20058;-64
2024/01/12 09:42:54;;;;;;;36.20;17.58;;;-0.80;99.90;;;;;;4954438;29;20043;-64
2024/01/12 09:45:23;;;;;;;39.92;16.48;;;-0.80;99.90;;;;;;4952597;29;20047;-64
2024/01/12 09:47:52;;;;;;;30.63;15.70;;;-0.80;99.90;;;;;;4954658;29;20386;-63
2024/01/12 09:50:24;;;;;;;33.95;15.73;;;-0.80;99.90;;;;;;4954069;29;20050;-64
2024/01/12 09:52:51;;;;;;;36.50;17.25;;;-0.70;99.90;;;;;;4946066;29;20528;-64
2024/01/12 09:55:18;;;;;;;33.85;15.93;;;-0.60;99.90;;;;;;4954146;28;20087;-64
2024/01/12 09:57:46;;;;;;;38.15;16.88;;;-0.70;99.90;;;;;;4951825;29;20053;-63
2024/01/12 10:00:16;;;;;;;36.72;17.60;;;-0.80;99.90;;;;;;4948790;29;20083;-64
2024/01/12 10:02:43;;;;;;;38.05;17.35;;;-0.70;99.90;;;;;;4947932;28;20126;-64
2024/01/12 10:05:10;;;;;;;36.08;16.45;;;-0.60;99.90;;;;;;4953950;28;20457;-64
2024/01/12 10:07:38;;;;;;;37.10;17.67;;;-0.60;99.90;;;;;;4953670;29;20090;-64
2024/01/12 10:10:08;;;;;;;36.05;16.65;;;-0.50;99.90;;;;;;4946295;29;20051;-64
2024/01/12 10:12:35;;;;;;;32.13;16.42;;;-0.30;99.90;;;;;;4953296;29;20047;-64
2024/01/12 10:15:03;;;;;;;30.63;15.63;;;-0.30;99.90;;;;;;4953781;28;20417;-63
2024/01/12 10:17:31;;;;;;;38.75;16.05;;;-0.70;99.90;;;;;;4953913;29;20043;-64
2024/01/12 10:19:58;;;;;;;35.40;16.05;;;-0.60;99.90;;;;;;4934289;29;20118;-64
2024/01/12 10:22:25;;;;;;;34.55;15.77;;;-0.80;99.90;;;;;;4953800;29;20040;-63
2024/01/12 10:24:59;;;;;;;30.52;13.77;;;-0.70;99.90;;;;;;4951191;28;20062;-64
2024/01/12 10:27:27;;;;;;;35.30;15.63;;;-0.50;99.90;;;;;;4953700;29;20070;-63
2024/01/12 10:29:55;;;;;;;;;;;-0.50;99.90;;;;;;4954039;29;20507;-63
2024/01/12 10:32:22;;;;;;;32.92;14.52;;;-0.50;99.90;;;;;;4951350;29;19964;-63
2024/01/12 10:34:50;;;;;;;31.15;14.07;;;-0.50;99.90;;;;;;4951951;28;20047;-64
2024/01/12 10:37:19;;;;;;;32.55;15.23;;;-0.30;99.90;;;;;;4953414;29;20110;-63
2024/01/12 10:39:48;;;;;;;33.08;14.93;;;-0.20;99.90;;;;;;4945760;29;20047;-64
2024/01/12 10:42:16;;;;;;;33.67;14.90;;;-0.20;99.90;;;;;;4952939;28;20059;-62
2024/01/12 10:44:45;;;;;;;29.33;15.32;;;-0.50;99.90;;;;;;4951796;28;20043;-64
2024/01/12 10:47:20;;;;;;;34.53;16.30;;;-0.40;99.90;;;;;;4953583;28;20445;-63
2024/01/12 10:49:49;;;;;;;34.20;16.23;;;-0.20;99.90;;;;;;4953274;29;20061;-62
2024/01/12 10:52:40;;;;;;;33.92;16.40;;;-0.20;99.90;;;;;;4949087;29;20569;-64
2024/01/12 10:55:10;;;;;;;32.28;15.18;;;-0.30;99.90;;;;;;4946162;29;20055;-63
2024/01/12 10:57:37;;;;;;;38.33;17.45;;;-0.20;99.90;;;;;;4953090;29;20103;-62
2024/01/12 11:00:08;;;;;;;;;;;-0.20;99.90;;;;;;4945784;29;20047;-64
2024/01/12 11:02:36;;;;;;;37.92;16.23;;;-0.20;99.90;;;;;;4952787;28;19929;-63
2024/01/12 11:05:07;;;;;;;42.42;16.08;;;0.00;99.90;;;;;;4945199;28;20047;-64
2024/01/12 11:07:35;;;;;;;33.03;14.63;;;0.20;99.90;;;;;;4951287;28;20069;-64
2024/01/12 11:10:03;;;;;;;35.30;16.30;;;-0.10;99.90;;;;;;4945659;29;20381;-64
2024/01/12 11:12:38;;;;;;;32.85;15.65;;;-0.20;99.90;;;;;;4952588;29;20086;-64
2024/01/12 11:15:06;;;;;;;37.55;15.60;;;0.00;99.90;;;;;;4950203;28;20049;-64
2024/01/12 11:17:35;;;;;;;36.50;16.48;;;0.00;99.90;;;;;;4953058;29;20071;-64
2024/01/12 11:20:16;;;;;;;29.80;13.63;;;0.10;99.90;;;;;;4952905;29;20400;-64
2024/01/12 11:22:49;;;;;;;33.55;15.65;;;0.20;99.90;;;;;;4945878;29;20512;-64
2024/01/12 11:25:19;;;;;;;37.42;18.00;;;0.30;99.90;;;;;;4950379;28;20054;-64
2024/01/12 11:27:50;;;;;;;34.70;15.82;;;0.50;99.90;;;;;;4944664;29;20059;-64
2024/01/12 11:30:22;;;;;;;33.15;15.70;;;0.40;99.90;;;;;;4946685;29;20051;-64
2024/01/12 11:33:00;;;;;;;36.10;15.32;;;0.40;99.90;;;;;;4952550;29;20103;-64
2024/01/12 11:35:29;;;;;;;31.92;15.50;;;0.30;99.90;;;;;;4952600;28;20059;-64
2024/01/12 11:38:00;;;;;;;34.78;16.75;;;0.30;99.90;;;;;;4943713;29;20055;-64
2024/01/12 11:40:28;;;;;;;31.63;14.82;;;0.40;99.90;;;;;;4952184;28;20051;-64
2024/01/12 11:42:58;;;;;;;31.73;15.90;;;0.50;99.90;;;;;;4952547;29;20039;-64
2024/01/12 11:45:25;;;;;;;32.97;16.00;;;0.50;99.90;;;;;;4944310;28;20052;-64
2024/01/12 11:47:53;;;;;;;37.92;17.13;;;0.40;99.90;;;;;;4956011;29;20053;-64
2024/01/12 11:50:24;;;;;;;41.33;17.08;;;0.30;99.90;;;;;;4956532;29;20173;-64
2024/01/12 11:52:56;;;;;;;42.80;18.40;;;0.30;99.90;;;;;;4955205;29;20039;-64
2024/01/12 11:55:24;;;;;;;35.97;17.70;;;0.40;99.90;;;;;;4956381;28;20043;-63
2024/01/12 11:57:54;;;;;;;38.20;18.00;;;0.20;99.90;;;;;;4956158;29;20047;-64
2024/01/12 12:00:25;;;;;;;47.35;18.88;;;0.20;99.90;;;;;;4956313;29;20043;-63
2024/01/12 12:02:52;;;;;;;41.35;18.50;;;0.20;99.90;;;;;;4954877;29;20556;-64
2024/01/12 12:05:24;;;;;;;59.33;23.63;;;0.20;99.90;;;;;;4939774;29;20046;-64
2024/01/12 12:07:52;;;;;;;44.67;20.90;;;0.30;99.90;;;;;;4955994;29;20047;-64
2024/01/12 12:10:19;;;;;;;36.65;16.75;;;0.40;99.90;;;;;;4947047;29;20452;-64
2024/01/12 12:12:58;;;;;;;35.97;17.75;;;0.40;99.90;;;;;;4956200;29;20051;-64
2024/01/12 12:15:25;;;;;;;33.30;16.92;;;0.50;99.90;;;;;;4956233;28;20095;-64
2024/01/12 12:17:54;;;;;;;38.42;17.73;;;0.50;99.90;;;;;;4952241;29;20070;-64
2024/01/12 12:20:22;;;;;;;37.58;18.08;;;0.60;99.90;;;;;;4955775;29;20228;-64
2024/01/12 12:22:50;;;;;;;35.47;17.08;;;0.60;99.90;;;;;;4955600;29;20111;-64
2024/01/12 12:25:17;;;;;;;37.70;17.70;;;0.50;99.90;;;;;;4951474;28;20046;-64
2024/01/12 12:27:46;;;;;;;39.28;17.08;;;0.40;99.90;;;;;;4955871;29;20497;-64
2024/01/12 12:30:15;;;;;;;37.60;18.30;;;0.30;99.90;;;;;;4955973;29;20048;-64
2024/01/12 12:32:44;;;;;;;36.80;16.92;;;0.40;99.90;;;;;;4955494;29;20031;-63
2024/01/12 12:35:19;;;;;;;36.80;19.10;;;0.50;99.90;;;;;;4947161;29;20491;-64